createdAt,value
2018-11-22T12:18:04.615Z,15.20
2018-11-22T12:20:30.771Z,14.40
2018-11-22T12:22:56.951Z,15.90
2018-11-22T12:25:22.997Z,14.50
2018-11-22T12:27:48.978Z,15.70
2018-11-22T12:30:16.315Z,16.70
2018-11-22T12:32:42.307Z,15.90
2018-11-22T12:35:08.276Z,14.73
2018-11-22T12:37:35.021Z,16.10
2018-11-22T12:40:01.033Z,19.87
2018-11-22T12:42:27.765Z,16.17
2018-11-22T12:44:53.773Z,17.07
2018-11-22T12:47:19.771Z,17.40
2018-11-22T12:49:45.730Z,17.23
2018-11-22T12:52:11.683Z,18.03
2018-11-22T12:54:37.679Z,18.00
2018-11-22T12:57:04.429Z,19.10
2018-11-22T12:59:31.128Z,16.30
2018-11-22T13:01:57.136Z,18.67
2018-11-22T13:04:23.215Z,15.70
2018-11-22T13:06:49.175Z,17.20
2018-11-22T13:09:15.152Z,18.47
2018-11-22T13:11:47.610Z,19.07
2018-11-22T13:14:08.599Z,17.37
2018-11-22T13:16:34.600Z,18.80
2018-11-22T13:19:00.639Z,18.20
2018-11-22T13:21:26.680Z,20.27
2018-11-22T13:23:53.415Z,18.10
2018-11-22T13:26:19.381Z,18.33
2018-11-22T13:28:45.320Z,19.80
2018-11-22T13:31:11.314Z,18.00
2018-11-22T13:33:37.279Z,21.60
2018-11-22T13:36:03.283Z,20.30
2018-11-22T13:38:29.284Z,21.33
2018-11-22T13:40:55.273Z,19.30
2018-11-22T13:43:21.268Z,20.60
2018-11-22T13:45:47.310Z,20.57
2018-11-22T13:48:13.330Z,21.73
2018-11-22T13:50:42.128Z,19.23
2018-11-22T13:53:05.321Z,23.30
2018-11-22T13:55:31.329Z,20.55
2018-11-22T13:57:57.355Z,20.12
2018-11-22T14:00:23.390Z,20.77
2018-11-22T14:02:49.412Z,21.73
2018-11-22T14:05:15.600Z,20.30
2018-11-22T14:07:41.498Z,21.77
2018-11-22T14:10:07.506Z,20.47
2018-11-22T14:12:33.511Z,22.00
2018-11-22T14:14:59.570Z,21.03
2018-11-22T14:17:25.568Z,22.93
2018-11-22T14:19:51.730Z,22.27
2018-11-22T14:22:17.834Z,23.00
2018-11-22T14:24:43.832Z,20.17
2018-11-22T14:27:09.788Z,20.47
2018-11-22T14:29:35.783Z,21.87
2018-11-22T14:32:01.764Z,19.77
2018-11-22T14:34:27.731Z,20.70
2018-11-22T14:36:53.725Z,20.20
2018-11-22T14:39:19.697Z,23.83
2018-11-22T14:41:45.700Z,20.50
2018-11-22T14:44:11.720Z,21.77
2018-11-22T14:46:37.690Z,19.85
2018-11-22T14:49:04.416Z,19.87
2018-11-22T14:51:30.391Z,21.40
2018-11-22T14:53:56.423Z,21.50
2018-11-22T14:56:22.449Z,20.65
2018-11-22T14:58:48.501Z,21.35
2018-11-22T15:01:15.289Z,20.35
2018-11-22T15:03:41.276Z,20.90
2018-11-22T15:06:07.243Z,20.77
2018-11-22T15:08:33.216Z,21.43
2018-11-22T15:11:00.098Z,21.80
2018-11-22T15:13:26.517Z,22.92
2018-11-22T15:15:52.747Z,22.50
2018-11-22T15:18:19.061Z,20.08
2018-11-22T15:20:45.051Z,21.42
2018-11-22T15:23:11.030Z,19.97
2018-11-22T15:25:36.997Z,20.47
2018-11-22T15:28:02.982Z,22.83
2018-11-22T15:30:28.995Z,22.83
2018-11-22T15:32:55.075Z,25.17
2018-11-22T15:35:21.069Z,24.10
2018-11-22T15:37:47.069Z,22.60
2018-11-22T15:40:13.052Z,22.75
2018-11-22T15:42:39.028Z,23.40
2018-11-22T15:45:04.997Z,23.90
2018-11-22T15:47:30.966Z,21.63
2018-11-22T15:49:56.934Z,23.97
2018-11-22T15:52:22.937Z,22.03
2018-11-22T15:54:49.026Z,22.15
2018-11-22T15:57:15.057Z,21.33
2018-11-22T15:59:41.300Z,23.87
2018-11-22T16:02:07.345Z,21.50
2018-11-22T16:04:33.304Z,25.73
2018-11-22T16:06:59.277Z,28.63
2018-11-22T16:09:25.280Z,31.90
2018-11-22T16:11:51.249Z,39.97
2018-11-22T16:14:17.956Z,32.67
2018-11-22T16:16:43.970Z,31.67
2018-11-22T16:19:09.932Z,25.58
2018-11-22T16:21:36.620Z,52.00
2018-11-22T16:24:02.645Z,44.28
2018-11-22T16:26:28.624Z,42.67
2018-11-22T16:28:54.657Z,43.07
2018-11-22T16:31:20.653Z,55.80
2018-11-22T16:33:46.654Z,44.05
2018-11-22T16:36:12.616Z,48.93
2018-11-22T16:38:38.613Z,31.90
2018-11-22T16:41:04.560Z,32.60
2018-11-22T16:43:30.504Z,32.00
2018-11-22T16:45:56.504Z,26.03
2018-11-22T16:48:22.489Z,34.93
2018-11-22T16:50:48.497Z,36.10
2018-11-22T16:53:14.512Z,30.27
2018-11-22T16:55:40.520Z,27.35
2018-11-22T16:58:06.485Z,28.20
2018-11-22T17:00:32.493Z,30.57
2018-11-22T17:02:59.263Z,29.02
2018-11-22T17:05:25.284Z,30.35
2018-11-22T17:07:51.313Z,32.30
2018-11-22T17:10:17.272Z,32.17
2018-11-22T17:12:43.251Z,30.30
2018-11-22T17:15:09.239Z,26.97
2018-11-22T17:17:35.377Z,30.87
2018-11-22T17:20:02.119Z,28.70
2018-11-22T17:22:28.112Z,29.23
2018-11-22T17:24:54.074Z,27.03
2018-11-22T17:27:20.099Z,28.30
2018-11-22T17:29:46.201Z,28.35
2018-11-22T17:32:12.153Z,27.90
2018-11-22T17:34:38.134Z,28.10
2018-11-22T17:37:04.093Z,26.77
2018-11-22T17:39:31.556Z,28.10
2018-11-22T17:41:56.033Z,26.70
2018-11-22T17:44:22.048Z,27.63
2018-11-22T17:46:48.842Z,28.83
2018-11-22T17:49:14.840Z,29.67
2018-11-22T17:51:40.840Z,30.00
2018-11-22T17:54:06.837Z,29.55
2018-11-22T17:56:32.830Z,28.43
2018-11-22T17:58:58.840Z,29.63
2018-11-22T18:01:24.844Z,28.23
2018-11-22T18:03:50.817Z,25.73
2018-11-22T18:06:16.807Z,25.43
2018-11-22T18:08:42.812Z,26.63
2018-11-22T18:11:08.780Z,25.52
2018-11-22T18:13:34.748Z,24.97
2018-11-22T18:16:00.808Z,24.93
2018-11-22T18:18:26.810Z,26.05
2018-11-22T18:20:53.088Z,26.00
2018-11-22T18:23:19.864Z,27.67
2018-11-22T18:25:48.907Z,26.50
2018-11-22T18:28:11.901Z,29.75
2018-11-22T18:30:37.860Z,28.73
2018-11-22T18:33:03.859Z,27.87
2018-11-22T18:35:29.897Z,28.55
2018-11-22T18:37:55.898Z,27.55
2018-11-22T18:40:21.879Z,26.12
2018-11-22T18:42:47.849Z,26.60
2018-11-22T18:45:14.841Z,27.80
2018-11-22T18:47:40.826Z,25.60
2018-11-22T18:50:06.794Z,24.33
2018-11-22T18:52:32.764Z,24.93
2018-11-22T18:54:58.716Z,24.20
2018-11-22T18:57:24.688Z,23.73
2018-11-22T18:59:50.693Z,23.83
2018-11-22T19:02:16.657Z,24.25
2018-11-22T19:04:42.637Z,21.33
2018-11-22T19:07:08.640Z,23.73
2018-11-22T19:09:34.637Z,23.47
2018-11-22T19:12:00.642Z,24.30
2018-11-22T19:14:26.629Z,22.27
2018-11-22T19:16:52.617Z,22.33
2018-11-22T19:19:18.605Z,25.90
2018-11-22T19:21:44.705Z,29.63
2018-11-22T19:24:10.701Z,27.30
2018-11-22T19:26:37.430Z,28.60
2018-11-22T19:29:03.425Z,33.95
2018-11-22T19:31:29.459Z,40.50
2018-11-22T19:33:55.461Z,38.20
2018-11-22T19:36:21.404Z,41.07
2018-11-22T19:38:47.377Z,39.00
2018-11-22T19:41:13.336Z,28.40
2018-11-22T19:43:39.308Z,24.27
2018-11-22T19:46:05.385Z,21.60
2018-11-22T19:48:31.384Z,23.35
2018-11-22T19:50:57.384Z,25.55
2018-11-22T19:53:23.377Z,26.40
2018-11-22T19:55:49.370Z,29.90
2018-11-22T19:58:15.372Z,31.20
2018-11-22T20:00:41.435Z,30.83
2018-11-22T20:03:07.425Z,28.60
2018-11-22T20:05:33.497Z,25.40
2018-11-22T20:08:00.276Z,24.48
2018-11-22T20:10:26.248Z,22.50
2018-11-22T20:12:52.254Z,24.30
2018-11-22T20:15:18.255Z,24.12
2018-11-22T20:17:44.224Z,22.87
2018-11-22T20:20:10.936Z,24.57
2018-11-22T20:22:36.933Z,24.90
2018-11-22T20:25:02.909Z,24.63
2018-11-22T20:27:28.985Z,24.13
2018-11-22T20:29:54.978Z,24.92
2018-11-22T20:32:21.033Z,26.12
2018-11-22T20:34:47.108Z,27.50
2018-11-22T20:37:13.075Z,31.98
2018-11-22T20:39:39.061Z,29.07
2018-11-22T20:42:05.020Z,27.47
2018-11-22T20:44:30.960Z,26.57
2018-11-22T20:46:56.984Z,27.20
2018-11-22T20:49:23.747Z,30.75
2018-11-22T20:51:49.728Z,29.85
2018-11-22T20:54:15.708Z,40.57
2018-11-22T20:56:41.772Z,37.13
2018-11-22T20:59:07.755Z,33.28
2018-11-22T21:01:33.790Z,29.27
2018-11-22T21:03:59.821Z,26.50
2018-11-22T21:06:25.802Z,31.37
2018-11-22T21:08:51.744Z,33.50
2018-11-22T21:11:17.708Z,29.60
2018-11-22T21:13:43.700Z,32.57
2018-11-22T21:16:09.670Z,30.03
2018-11-22T21:18:35.645Z,30.03
2018-11-22T21:21:01.641Z,34.30
2018-11-22T21:23:28.575Z,33.25
2018-11-22T21:25:53.640Z,31.55
2018-11-22T21:28:19.675Z,33.10
2018-11-22T21:30:45.652Z,30.17
2018-11-22T21:33:11.640Z,31.47
2018-11-22T21:35:37.723Z,31.35
2018-11-22T21:38:03.765Z,29.80
2018-11-22T21:40:29.753Z,30.20
2018-11-22T21:42:55.720Z,26.73
2018-11-22T21:45:21.705Z,23.27
2018-11-22T21:47:47.765Z,25.92
2018-11-22T21:50:13.725Z,24.85
2018-11-22T21:52:39.689Z,26.03
2018-11-22T21:55:05.673Z,25.50
2018-11-22T21:57:31.704Z,24.17
2018-11-22T21:59:57.691Z,26.55
2018-11-22T22:02:23.697Z,23.43
2018-11-22T22:04:49.698Z,27.40
2018-11-22T22:07:15.652Z,28.50
2018-11-22T22:09:42.376Z,28.20
2018-11-22T22:12:08.361Z,27.92
2018-11-22T22:14:34.390Z,27.80
2018-11-22T22:17:00.475Z,27.35
2018-11-22T22:19:26.469Z,28.33
2018-11-22T22:21:53.172Z,28.67
2018-11-22T22:24:19.180Z,25.77
2018-11-22T22:26:45.238Z,24.52
2018-11-22T22:29:11.225Z,25.42
2018-11-22T22:31:37.199Z,26.90
2018-11-22T22:34:03.211Z,28.00
2018-11-22T22:36:29.925Z,27.58
2018-11-22T22:38:55.912Z,25.02
2018-11-22T22:41:21.898Z,26.20
2018-11-22T22:43:47.868Z,28.20
2018-11-22T22:46:13.849Z,26.67
2018-11-22T22:48:39.812Z,27.53
2018-11-22T22:51:05.791Z,24.27
2018-11-22T22:53:31.796Z,26.70
2018-11-22T22:55:57.793Z,26.92
2018-11-22T22:58:23.777Z,25.43
2018-11-22T23:00:49.868Z,27.80
2018-11-22T23:03:15.893Z,30.70
2018-11-22T23:05:41.870Z,34.55
2018-11-22T23:08:07.910Z,31.93
2018-11-22T23:10:33.877Z,27.52
2018-11-22T23:12:59.836Z,25.57
2018-11-22T23:15:25.847Z,29.00
2018-11-22T23:17:51.844Z,27.42
2018-11-22T23:20:17.827Z,30.00
2018-11-22T23:22:43.783Z,25.17
2018-11-22T23:25:09.773Z,26.13
2018-11-22T23:27:35.771Z,25.37
2018-11-22T23:30:01.732Z,26.80
2018-11-22T23:32:27.720Z,25.90
2018-11-22T23:34:53.709Z,25.07
2018-11-22T23:37:19.712Z,26.57
2018-11-22T23:39:46.398Z,26.17
2018-11-22T23:42:12.417Z,25.17
2018-11-22T23:44:38.488Z,25.20
2018-11-22T23:47:04.505Z,27.42
2018-11-22T23:49:30.485Z,27.13
2018-11-22T23:51:56.537Z,24.17
2018-11-22T23:54:22.524Z,23.85
2018-11-22T23:56:48.480Z,28.10
2018-11-22T23:59:14.469Z,26.97
